Main page
METAR-TAF:

METAR-TAF

Airports :

Sirri, Iran

Sirri Island Airport

latitude: 25-54-34N, longitude: 054-32-22E, elevation: 13 m

Current weather observation

The report was made 5 hours and 29 minutes ago, at 15:00 UTC
Wind 8 kt from the West/Southwest
Temperature 30°C
Humidity 79%
Pressure 1007 hPa
Visibility: 3500 m
mist

METAR: OIBS 301500Z 24008KT 3500 BR NSC 30/26 Q1007

Time: 00:59 (20:29 UTC)


TAF: missing

Weather observations and forecasts of more than 4000 airports (METAR and TAF reports).

The available stations are represented by yellow and red dots on the map.

Hover mouse over dot to see the name of the station.

Then click to see weather observations and forecasts.

To change the map : click on the green buttons with a black cross to zoom in, on the green button with a dash to zoom out, or on the green arrows for adjacent maps.


METAR-TAF: